Terminal Aerodrome Forecast
Issued by NWS Sioux Falls, SD

Home | Current Version | Previous Version | Text Only | Print | Product List | Glossary On
Versions: 1 2 3 4 5 6 7 8 9 10 11 12
000
FTUS43 KFSD 241722
TAFFSD
TAF
KFSD 241722Z 2418/2518 32011KT P6SM SCT130 OVC250
     FM250200 30007KT P6SM BKN130
     FM250900 33006KT P6SM SCT150
     FM251500 32010KT P6SM FEW250=

USA.gov is the U.S. government's official web portal to all federal, state and local government web resources and services.